Time;durP1;ratioP1;P1;durP2;ratioP2;P2;SDS_P1;SDS_P2;PMS_P1;PMS_P2;Temp;Humidity;BMP_temperature;BMP_pressure;BME280_temperature;BME280_humidity;BME280_pressure;Samples;Min_cycle;Max_cycle;Signal;HPM_P1;HPM_P2
2023/05/13 00:02:02;;;;;;;9.98;5.95;;;;;;;;;;5008675;28;20045;-56
2023/05/13 00:04:28;;;;;;;10.88;6.85;;;;;;;;;;5011779;28;20046;-57
2023/05/13 00:06:54;;;;;;;10.57;6.10;;;;;;;;;;5006754;28;20117;-58
2023/05/13 00:09:20;;;;;;;10.32;6.47;;;;;;;;;;5005858;28;20440;-57
2023/05/13 00:11:46;;;;;;;8.70;6.35;;;;;;;;;;5010448;28;20038;-57
2023/05/13 00:14:13;;;;;;;11.15;6.30;;;;;;;;;;5004067;28;20614;-57
2023/05/13 00:16:39;;;;;;;10.07;6.63;;;;;;;;;;5005158;28;20045;-57
2023/05/13 00:19:05;;;;;;;9.20;5.85;;;;;;;;;;5010038;28;20661;-57
2023/05/13 00:21:32;;;;;;;8.95;5.55;;;;;;;;;;5007480;28;20045;-57
2023/05/13 00:23:58;;;;;;;10.50;6.53;;;;;;;;;;5009413;28;20077;-57
2023/05/13 00:26:24;;;;;;;10.18;6.85;;;;;;;;;;5012274;28;20038;-57
2023/05/13 00:28:50;;;;;;;9.85;6.40;;;;;;;;;;5003835;28;20046;-57
2023/05/13 00:31:16;;;;;;;10.43;6.75;;;;;;;;;;5004818;28;20411;-57
2023/05/13 00:33:43;;;;;;;10.07;6.43;;;;;;;;;;5004246;28;20052;-58
2023/05/13 00:36:11;;;;;;;10.95;6.43;;;;;;;;;;5009768;28;20444;-57
2023/05/13 00:38:37;;;;;;;11.18;6.90;;;;;;;;;;5011165;28;20038;-57
2023/05/13 00:41:03;;;;;;;10.63;5.88;;;;;;;;;;5042107;28;20180;-57
2023/05/13 00:43:30;;;;;;;10.18;5.63;;;;;;;;;;5011508;28;20058;-60
2023/05/13 00:45:56;;;;;;;11.38;5.90;;;;;;;;;;5010063;28;20056;-60
2023/05/13 00:48:22;;;;;;;12.63;6.75;;;;;;;;;;5011612;28;20045;-59
2023/05/13 00:50:49;;;;;;;10.85;6.40;;;;;;;;;;5012439;28;20038;-60
2023/05/13 00:53:16;;;;;;;10.07;6.00;;;;;;;;;;5003931;28;20101;-60
2023/05/13 00:55:43;;;;;;;12.52;7.90;;;;;;;;;;5010174;28;20615;-60
2023/05/13 00:58:10;;;;;;;10.23;5.97;;;;;;;;;;5010560;28;20046;-60
2023/05/13 01:00:43;;;;;;;11.13;6.25;;;;;;;;;;5008161;28;20121;-60
2023/05/13 01:03:21;;;;;;;10.30;6.35;;;;;;;;;;5011602;28;20794;-60
2023/05/13 01:05:53;;;;;;;12.57;7.95;;;;;;;;;;5010466;28;20053;-60
2023/05/13 01:08:19;;;;;;;;;;;;;;;;;;5006632;28;20045;-60
2023/05/13 01:10:45;;;;;;;12.35;6.95;;;;;;;;;;5009169;28;19925;-60
2023/05/13 01:13:15;;;;;;;12.40;7.63;;;;;;;;;;5008990;28;20137;-60
2023/05/13 01:15:47;;;;;;;10.07;6.30;;;;;;;;;;5015696;28;20069;-60
2023/05/13 01:18:15;;;;;;;11.90;6.68;;;;;;;;;;5016071;28;20042;-60
2023/05/13 01:20:42;;;;;;;14.38;5.95;;;;;;;;;;5019010;28;20038;-60
2023/05/13 01:23:12;;;;;;;11.18;6.38;;;;;;;;;;5014154;28;21009;-60
2023/05/13 01:25:38;;;;;;;12.00;6.53;;;;;;;;;;5031893;28;20382;-60
2023/05/13 01:28:05;;;;;;;11.38;7.38;;;;;;;;;;5028687;28;20100;-60
2023/05/13 01:30:31;;;;;;;12.02;7.47;;;;;;;;;;5014993;28;20052;-60
2023/05/13 01:32:57;;;;;;;11.35;6.05;;;;;;;;;;5009592;28;20045;-60
2023/05/13 01:35:24;;;;;;;11.15;6.80;;;;;;;;;;5010101;28;20579;-60
2023/05/13 01:37:50;;;;;;;10.75;6.70;;;;;;;;;;5012183;28;20052;-61
2023/05/13 01:40:16;;;;;;;11.13;6.75;;;;;;;;;;5016772;28;20046;-60
2023/05/13 01:42:42;;;;;;;10.43;7.43;;;;;;;;;;5017683;28;20092;-60
2023/05/13 01:45:09;;;;;;;11.45;6.47;;;;;;;;;;5016901;28;20057;-60
2023/05/13 01:47:35;;;;;;;12.48;7.43;;;;;;;;;;5017119;28;20096;-60
2023/05/13 01:50:01;;;;;;;10.52;6.47;;;;;;;;;;5017477;28;20602;-60
2023/05/13 01:52:27;;;;;;;11.35;6.78;;;;;;;;;;5016431;28;20050;-60
2023/05/13 01:54:53;;;;;;;12.38;7.78;;;;;;;;;;5013490;28;20089;-60
2023/05/13 01:57:19;;;;;;;11.60;6.40;;;;;;;;;;5014702;28;20045;-60
2023/05/13 01:59:46;;;;;;;12.90;6.80;;;;;;;;;;5015281;28;20064;-60
2023/05/13 02:02:12;;;;;;;11.43;7.03;;;;;;;;;;5013070;28;20851;-60
2023/05/13 02:04:38;;;;;;;13.70;8.77;;;;;;;;;;5032332;28;20131;-60
2023/05/13 02:07:04;;;;;;;14.13;8.07;;;;;;;;;;5013279;28;20046;-60
2023/05/13 02:09:30;;;;;;;12.90;7.90;;;;;;;;;;5011668;28;20831;-60
2023/05/13 02:11:56;;;;;;;13.95;8.23;;;;;;;;;;5013238;28;20045;-61
2023/05/13 02:14:22;;;;;;;16.35;8.02;;;;;;;;;;5028478;28;20080;-60
2023/05/13 02:16:48;;;;;;;14.63;8.25;;;;;;;;;;5017761;28;20042;-60
2023/05/13 02:19:14;;;;;;;16.33;9.55;;;;;;;;;;5014859;28;20391;-60
2023/05/13 02:21:42;;;;;;;17.27;11.43;;;;;;;;;;5010445;28;20049;-60
2023/05/13 02:24:08;;;;;;;16.83;8.98;;;;;;;;;;5013226;28;20060;-60
2023/05/13 02:26:35;;;;;;;14.93;9.35;;;;;;;;;;5011338;28;20536;-60
2023/05/13 02:29:01;;;;;;;16.70;10.43;;;;;;;;;;5004241;28;20050;-60
2023/05/13 02:31:27;;;;;;;18.92;12.15;;;;;;;;;;5009022;28;20228;-60
2023/05/13 02:33:53;;;;;;;20.50;12.40;;;;;;;;;;5005692;28;20353;-60
2023/05/13 02:36:19;;;;;;;18.88;12.07;;;;;;;;;;5003611;28;20053;-60
2023/05/13 02:38:45;;;;;;;23.70;13.70;;;;;;;;;;5005899;28;20052;-60
2023/05/13 02:41:11;;;;;;;24.10;12.95;;;;;;;;;;5012737;28;20507;-61
2023/05/13 02:43:37;;;;;;;21.20;11.63;;;;;;;;;;5015561;28;20511;-60
2023/05/13 02:46:04;;;;;;;23.77;11.27;;;;;;;;;;5012897;28;20136;-60
2023/05/13 02:48:30;;;;;;;20.33;11.90;;;;;;;;;;5013344;28;20427;-60
2023/05/13 02:50:56;;;;;;;20.83;12.02;;;;;;;;;;5013672;28;20046;-60
2023/05/13 02:53:23;;;;;;;15.52;9.93;;;;;;;;;;5014540;28;20053;-60
2023/05/13 02:55:49;;;;;;;22.00;12.60;;;;;;;;;;5013573;28;20034;-60
2023/05/13 02:58:15;;;;;;;20.88;11.00;;;;;;;;;;5011232;28;20049;-61
2023/05/13 03:00:41;;;;;;;22.15;12.93;;;;;;;;;;5012064;28;20045;-60
2023/05/13 03:03:08;;;;;;;16.85;9.18;;;;;;;;;;5013415;28;20057;-59
2023/05/13 03:05:34;;;;;;;22.27;12.35;;;;;;;;;;5011260;28;20041;-60
2023/05/13 03:08:00;;;;;;;24.85;13.82;;;;;;;;;;5007429;28;20268;-60
2023/05/13 03:10:26;;;;;;;23.60;12.50;;;;;;;;;;5010710;28;20060;-60
2023/05/13 03:12:52;;;;;;;20.75;12.13;;;;;;;;;;5006649;28;20129;-60
2023/05/13 03:15:18;;;;;;;27.20;13.98;;;;;;;;;;5011480;28;20073;-60
2023/05/13 03:17:44;;;;;;;24.58;14.32;;;;;;;;;;5008189;28;21766;-60
2023/05/13 03:20:10;;;;;;;23.65;14.65;;;;;;;;;;5008004;28;20487;-60
2023/05/13 03:22:40;;;;;;;20.80;12.65;;;;;;;;;;5005787;28;20576;-60
2023/05/13 03:25:07;;;;;;;23.17;13.52;;;;;;;;;;5010704;28;20038;-60
2023/05/13 03:27:33;;;;;;;15.65;7.68;;;;;;;;;;5006537;28;20053;-60
2023/05/13 03:29:59;;;;;;;23.40;13.48;;;;;;;;;;5009529;28;20042;-60
2023/05/13 03:32:29;;;;;;;24.08;12.68;;;;;;;;;;5009050;28;20245;-60
2023/05/13 03:34:56;;;;;;;24.20;14.13;;;;;;;;;;5008009;28;20492;-60
2023/05/13 03:37:22;;;;;;;19.98;12.40;;;;;;;;;;5011310;28;20343;-60
2023/05/13 03:39:48;;;;;;;19.50;12.95;;;;;;;;;;5006600;28;20038;-61
2023/05/13 03:42:14;;;;;;;23.15;13.73;;;;;;;;;;5004651;28;20046;-59
2023/05/13 03:44:40;;;;;;;24.35;13.25;;;;;;;;;;5008327;28;20058;-60
2023/05/13 03:47:06;;;;;;;22.67;15.15;;;;;;;;;;5008978;28;20608;-60
2023/05/13 03:49:32;;;;;;;25.05;14.95;;;;;;;;;;5010289;28;21850;-60
2023/05/13 03:51:59;;;;;;;24.75;14.38;;;;;;;;;;5006737;28;20048;-60
2023/05/13 03:54:25;;;;;;;22.25;13.38;;;;;;;;;;5010160;28;20037;-60
2023/05/13 03:56:51;;;;;;;22.08;13.85;;;;;;;;;;5043055;28;20132;-60
2023/05/13 03:59:17;;;;;;;25.17;14.88;;;;;;;;;;5007337;28;20038;-60
2023/05/13 04:01:43;;;;;;;36.60;17.48;;;;;;;;;;5006100;28;20069;-60
2023/05/13 04:04:09;;;;;;;24.52;12.30;;;;;;;;;;5006966;28;20439;-61
2023/05/13 04:06:35;;;;;;;21.33;11.50;;;;;;;;;;5009900;28;20049;-59
2023/05/13 04:09:03;;;;;;;22.73;14.48;;;;;;;;;;5006635;28;20124;-60
2023/05/13 04:11:30;;;;;;;23.75;14.48;;;;;;;;;;5008527;28;20042;-60
2023/05/13 04:13:56;;;;;;;26.85;15.38;;;;;;;;;;5010174;28;20456;-60
2023/05/13 04:16:22;;;;;;;25.33;14.35;;;;;;;;;;5007030;28;20531;-60
2023/05/13 04:18:48;;;;;;;26.50;16.48;;;;;;;;;;5005665;28;20579;-60
2023/05/13 04:21:14;;;;;;;17.45;10.18;;;;;;;;;;5010582;28;20038;-60
2023/05/13 04:23:41;;;;;;;28.25;16.50;;;;;;;;;;5007427;28;20088;-60
2023/05/13 04:26:07;;;;;;;27.15;15.43;;;;;;;;;;5008855;28;20064;-60
2023/05/13 04:28:33;;;;;;;18.38;10.77;;;;;;;;;;5001826;28;20142;-59
2023/05/13 04:31:01;;;;;;;24.63;15.50;;;;;;;;;;5005004;28;20046;-60
2023/05/13 04:33:27;;;;;;;28.70;18.17;;;;;;;;;;5003980;28;20038;-60
2023/05/13 04:35:53;;;;;;;34.95;17.77;;;;;;;;;;5012093;28;20894;-60
2023/05/13 04:38:19;;;;;;;26.30;17.42;;;;;;;;;;5007570;28;20042;-60
2023/05/13 04:40:46;;;;;;;33.40;20.08;;;;;;;;;;5004453;28;20460;-61
2023/05/13 04:43:12;;;;;;;31.25;20.08;;;;;;;;;;5009877;28;20050;-60
2023/05/13 04:45:39;;;;;;;29.13;17.42;;;;;;;;;;5010221;28;20610;-60
2023/05/13 04:48:05;;;;;;;34.50;19.58;;;;;;;;;;5009426;28;20146;-57
2023/05/13 04:50:31;;;;;;;28.15;14.70;;;;;;;;;;4996385;28;20057;-56
2023/05/13 04:52:57;;;;;;;38.20;20.73;;;;;;;;;;5002291;28;20524;-57
2023/05/13 04:55:24;;;;;;;33.58;21.92;;;;;;;;;;5011316;28;20046;-57
2023/05/13 04:57:50;;;;;;;37.90;22.95;;;;;;;;;;5010878;28;20484;-57
2023/05/13 05:00:16;;;;;;;40.83;24.42;;;;;;;;;;5040100;28;20042;-57
2023/05/13 05:02:42;;;;;;;35.22;19.83;;;;;;;;;;5008718;28;20610;-57
2023/05/13 05:05:09;;;;;;;36.45;22.55;;;;;;;;;;5010913;28;20056;-57
2023/05/13 05:07:39;;;;;;;22.88;13.57;;;;;;;;;;5008190;28;20046;-57
2023/05/13 05:10:06;;;;;;;37.70;22.55;;;;;;;;;;5007385;28;20046;-57
2023/05/13 05:12:32;;;;;;;45.20;24.48;;;;;;;;;;5010497;28;20535;-57
2023/05/13 05:14:58;;;;;;;39.63;23.60;;;;;;;;;;5009727;28;20168;-57
2023/05/13 05:17:24;;;;;;;39.67;23.13;;;;;;;;;;5001465;28;20145;-57
2023/05/13 05:19:50;;;;;;;37.20;21.13;;;;;;;;;;5007288;28;20042;-57
2023/05/13 05:22:16;;;;;;;37.65;25.27;;;;;;;;;;5007519;28;20042;-57
2023/05/13 05:24:42;;;;;;;40.05;21.95;;;;;;;;;;5006870;28;20057;-56
2023/05/13 05:27:08;;;;;;;45.47;27.25;;;;;;;;;;5006550;28;20045;-57
2023/05/13 05:29:34;;;;;;;46.50;28.23;;;;;;;;;;5007399;28;20598;-57
2023/05/13 05:32:00;;;;;;;40.63;22.88;;;;;;;;;;5001239;28;20053;-57
2023/05/13 05:34:26;;;;;;;38.33;23.20;;;;;;;;;;5007176;28;20097;-57
2023/05/13 05:36:53;;;;;;;41.15;22.73;;;;;;;;;;5013573;28;20885;-57
2023/05/13 05:39:20;;;;;;;49.33;30.25;;;;;;;;;;5012033;28;20046;-57
2023/05/13 05:41:46;;;;;;;50.17;26.52;;;;;;;;;;5006624;28;21239;-57
2023/05/13 05:44:13;;;;;;;47.45;28.10;;;;;;;;;;5010062;28;20169;-57
2023/05/13 05:46:39;;;;;;;45.20;27.73;;;;;;;;;;5013649;28;20070;-57
2023/05/13 05:49:07;;;;;;;49.30;30.27;;;;;;;;;;5012759;28;20579;-57
2023/05/13 05:51:33;;;;;;;47.53;28.70;;;;;;;;;;5045680;28;20049;-57
2023/05/13 05:53:59;;;;;;;51.97;31.83;;;;;;;;;;5011636;28;20038;-57
2023/05/13 05:56:25;;;;;;;52.03;32.15;;;;;;;;;;5011958;28;20073;-57
2023/05/13 05:58:51;;;;;;;52.53;28.67;;;;;;;;;;5008917;28;20065;-57
2023/05/13 06:01:17;;;;;;;40.92;21.98;;;;;;;;;;5012051;28;20528;-57
2023/05/13 06:03:44;;;;;;;40.35;23.48;;;;;;;;;;5016034;28;20042;-57
2023/05/13 06:06:10;;;;;;;43.00;26.02;;;;;;;;;;5017969;28;20131;-57
2023/05/13 06:08:36;;;;;;;50.53;30.98;;;;;;;;;;5013277;28;20058;-57
2023/05/13 06:11:02;;;;;;;49.58;30.23;;;;;;;;;;5014348;28;20089;-57
2023/05/13 06:13:29;;;;;;;43.42;24.33;;;;;;;;;;5015975;28;20049;-57
2023/05/13 06:15:55;;;;;;;38.35;22.90;;;;;;;;;;5013619;28;20751;-57
2023/05/13 06:18:21;;;;;;;48.08;28.10;;;;;;;;;;5011948;28;21198;-57
2023/05/13 06:20:47;;;;;;;45.40;27.45;;;;;;;;;;5011182;28;20039;-57
2023/05/13 06:23:13;;;;;;;40.65;21.65;;;;;;;;;;5016180;28;20053;-57
2023/05/13 06:25:40;;;;;;;47.90;28.77;;;;;;;;;;5012449;28;20064;-57
2023/05/13 06:28:07;;;;;;;37.03;20.75;;;;;;;;;;5014910;28;20046;-57
2023/05/13 06:30:33;;;;;;;43.22;27.75;;;;;;;;;;5012367;28;20042;-57
2023/05/13 06:32:59;;;;;;;46.95;27.95;;;;;;;;;;5013473;28;20465;-57
2023/05/13 06:35:25;;;;;;;44.22;26.30;;;;;;;;;;5008031;28;20140;-57
2023/05/13 06:37:51;;;;;;;45.22;28.42;;;;;;;;;;5006425;28;20058;-57
2023/05/13 06:40:17;;;;;;;46.05;26.15;;;;;;;;;;5007880;28;20085;-57
2023/05/13 06:42:43;;;;;;;44.13;28.67;;;;;;;;;;5010969;28;20050;-57
2023/05/13 06:45:10;;;;;;;39.38;22.90;;;;;;;;;;5010336;28;20061;-57
2023/05/13 06:47:36;;;;;;;34.63;22.23;;;;;;;;;;5043357;28;20108;-57
2023/05/13 06:50:03;;;;;;;52.42;26.15;;;;;;;;;;5015815;28;20038;-57
2023/05/13 06:52:30;;;;;;;46.08;25.48;;;;;;;;;;5006781;28;20045;-57
2023/05/13 06:54:56;;;;;;;41.72;25.77;;;;;;;;;;5009482;28;20034;-57
2023/05/13 06:57:22;;;;;;;42.10;23.73;;;;;;;;;;5040972;28;20089;-57
2023/05/13 06:59:48;;;;;;;34.72;21.63;;;;;;;;;;5012849;28;20050;-57
2023/05/13 07:02:14;;;;;;;47.60;23.35;;;;;;;;;;5042079;28;20104;-57
2023/05/13 07:04:40;;;;;;;40.08;23.35;;;;;;;;;;5007823;28;20038;-57
2023/05/13 07:07:06;;;;;;;33.53;20.55;;;;;;;;;;5015753;28;20053;-57
2023/05/13 07:09:33;;;;;;;42.80;24.17;;;;;;;;;;5009251;28;20053;-57
2023/05/13 07:11:59;;;;;;;33.38;22.95;;;;;;;;;;5041844;28;20053;-57
2023/05/13 07:14:25;;;;;;;41.85;24.67;;;;;;;;;;5011169;28;20052;-57
2023/05/13 07:16:51;;;;;;;40.85;25.08;;;;;;;;;;5010098;28;20749;-56
2023/05/13 07:19:17;;;;;;;34.33;21.58;;;;;;;;;;5011035;28;20070;-57
2023/05/13 07:21:43;;;;;;;41.63;26.02;;;;;;;;;;5008502;28;20498;-57
2023/05/13 07:24:09;;;;;;;37.33;23.85;;;;;;;;;;5006607;28;20049;-57
2023/05/13 07:26:36;;;;;;;38.85;23.55;;;;;;;;;;5009074;28;20038;-57
2023/05/13 07:29:02;;;;;;;38.00;25.25;;;;;;;;;;5006821;28;20050;-57
2023/05/13 07:31:29;;;;;;;32.88;23.25;;;;;;;;;;5026390;28;20530;-56
2023/05/13 07:33:55;;;;;;;41.72;24.67;;;;;;;;;;5011527;28;20619;-57
2023/05/13 07:36:22;;;;;;;31.52;21.10;;;;;;;;;;5007311;28;20247;-57
2023/05/13 07:38:48;;;;;;;33.45;23.05;;;;;;;;;;5013092;28;20089;-57
2023/05/13 07:41:14;;;;;;;35.60;22.45;;;;;;;;;;5012511;28;20045;-57
2023/05/13 07:43:40;;;;;;;32.80;20.38;;;;;;;;;;5008847;28;20127;-57
2023/05/13 07:46:06;;;;;;;35.75;22.40;;;;;;;;;;5011046;28;20078;-57
2023/05/13 07:48:32;;;;;;;38.08;22.77;;;;;;;;;;5004457;28;20042;-57
2023/05/13 07:50:59;;;;;;;32.58;21.88;;;;;;;;;;5004785;28;20084;-57
2023/05/13 07:53:25;;;;;;;27.70;18.17;;;;;;;;;;5004696;28;20054;-57
2023/05/13 07:55:51;;;;;;;30.30;20.20;;;;;;;;;;5009558;28;20048;-57
2023/05/13 07:58:17;;;;;;;29.83;20.73;;;;;;;;;;5009994;28;20116;-57
2023/05/13 08:00:43;;;;;;;29.85;19.63;;;;;;;;;;5012035;28;20057;-57
2023/05/13 08:03:09;;;;;;;27.17;16.20;;;;;;;;;;5005001;28;20452;-57
2023/05/13 08:05:36;;;;;;;29.77;17.67;;;;;;;;;;5007823;28;20038;-56
2023/05/13 08:08:03;;;;;;;20.02;12.85;;;;;;;;;;5011973;28;20030;-57
2023/05/13 08:10:29;;;;;;;30.45;18.65;;;;;;;;;;5012410;28;20050;-57
2023/05/13 08:12:56;;;;;;;33.13;20.13;;;;;;;;;;5024546;28;20528;-57
2023/05/13 08:15:23;;;;;;;33.15;21.48;;;;;;;;;;5013242;28;20041;-57
2023/05/13 08:17:49;;;;;;;28.95;19.70;;;;;;;;;;5012892;28;20042;-57
2023/05/13 08:20:15;;;;;;;29.60;19.88;;;;;;;;;;5002459;28;20967;-58
2023/05/13 08:22:42;;;;;;;30.58;17.27;;;;;;;;;;5002169;28;20629;-56
2023/05/13 08:25:12;;;;;;;27.63;18.58;;;;;;;;;;5001175;28;20045;-57
2023/05/13 08:27:38;;;;;;;30.25;19.27;;;;;;;;;;5006751;28;20069;-57
2023/05/13 08:30:04;;;;;;;29.67;19.17;;;;;;;;;;5012465;28;20131;-57
2023/05/13 08:32:30;;;;;;;23.65;14.38;;;;;;;;;;5003845;28;20049;-57
2023/05/13 08:34:56;;;;;;;23.67;16.42;;;;;;;;;;5009171;28;20226;-57
2023/05/13 08:37:23;;;;;;;25.40;17.92;;;;;;;;;;5009141;28;20575;-57
2023/05/13 08:39:49;;;;;;;23.40;15.18;;;;;;;;;;5010253;28;20096;-57
2023/05/13 08:42:18;;;;;;;24.80;16.23;;;;;;;;;;5010082;28;20052;-56
2023/05/13 08:44:44;;;;;;;21.42;14.23;;;;;;;;;;5005692;28;20099;-56
2023/05/13 08:47:10;;;;;;;19.38;11.85;;;;;;;;;;5008271;28;20046;-57
2023/05/13 08:49:37;;;;;;;20.80;14.38;;;;;;;;;;5010111;28;20092;-57
2023/05/13 08:52:03;;;;;;;28.45;17.60;;;;;;;;;;5013843;28;20475;-56
2023/05/13 08:54:29;;;;;;;26.60;16.83;;;;;;;;;;5013338;28;20088;-57
2023/05/13 08:56:55;;;;;;;27.92;17.60;;;;;;;;;;5014609;28;20042;-57
2023/05/13 08:59:22;;;;;;;33.85;17.95;;;;;;;;;;5012260;28;20053;-57
2023/05/13 09:01:49;;;;;;;23.42;10.98;;;;;;;;;;5013863;28;20607;-56
2023/05/13 09:04:16;;;;;;;27.88;16.65;;;;;;;;;;5010495;28;20101;-57
2023/05/13 09:06:42;;;;;;;25.05;15.27;;;;;;;;;;5013247;28;20034;-57
2023/05/13 09:09:08;;;;;;;23.40;15.45;;;;;;;;;;5011762;28;20061;-57
2023/05/13 09:11:34;;;;;;;25.88;15.02;;;;;;;;;;5009095;28;20034;-57
2023/05/13 09:14:06;;;;;;;28.83;16.63;;;;;;;;;;5013531;28;20141;-56
2023/05/13 09:16:32;;;;;;;21.92;14.65;;;;;;;;;;5014323;28;20052;-57
2023/05/13 09:19:03;;;;;;;19.67;11.13;;;;;;;;;;5010540;28;20532;-57
2023/05/13 09:21:30;;;;;;;20.02;11.35;;;;;;;;;;5008413;28;20038;-57
2023/05/13 09:24:09;;;;;;;27.60;16.65;;;;;;;;;;5009033;28;20049;-56
2023/05/13 09:26:36;;;;;;;24.10;14.63;;;;;;;;;;5011702;28;20539;-57
2023/05/13 09:29:21;;;;;;;26.40;17.23;;;;;;;;;;5005691;28;20046;-57
2023/05/13 09:32:01;;;;;;;25.45;16.58;;;;;;;;;;5005773;28;20039;-56
2023/05/13 09:34:31;;;;;;;19.45;13.63;;;;;;;;;;5026433;28;20046;-57
2023/05/13 09:37:00;;;;;;;22.73;14.98;;;;;;;;;;5014310;28;20096;-57
2023/05/13 09:39:27;;;;;;;21.42;11.82;;;;;;;;;;5012440;28;20076;-57
2023/05/13 09:41:53;;;;;;;23.85;13.68;;;;;;;;;;5017199;28;20042;-57
2023/05/13 09:44:20;;;;;;;17.30;10.52;;;;;;;;;;5016422;28;20046;-57
2023/05/13 09:46:46;;;;;;;20.77;14.23;;;;;;;;;;5016943;28;20044;-57
2023/05/13 09:49:14;;;;;;;24.83;16.17;;;;;;;;;;5016413;28;20049;-57
2023/05/13 09:51:40;;;;;;;31.02;15.80;;;;;;;;;;5016950;28;20124;-57
2023/05/13 09:54:06;;;;;;;20.92;12.80;;;;;;;;;;5014472;28;20115;-57
2023/05/13 09:56:36;;;;;;;16.40;10.43;;;;;;;;;;5015960;28;20190;-56
2023/05/13 09:59:02;;;;;;;22.15;11.98;;;;;;;;;;5009361;28;20057;-57
2023/05/13 10:01:29;;;;;;;22.10;13.48;;;;;;;;;;5015303;28;20116;-57
2023/05/13 10:03:57;;;;;;;22.63;12.35;;;;;;;;;;5011193;28;20100;-57
2023/05/13 10:06:24;;;;;;;12.55;8.82;;;;;;;;;;5016043;28;20037;-56
2023/05/13 10:08:51;;;;;;;21.20;14.52;;;;;;;;;;5014023;28;20050;-57
2023/05/13 10:11:20;;;;;;;25.30;14.82;;;;;;;;;;5009248;28;20100;-57
2023/05/13 10:13:49;;;;;;;20.60;13.32;;;;;;;;;;5013422;28;20046;-57
2023/05/13 10:16:17;;;;;;;26.30;15.55;;;;;;;;;;5014895;28;20046;-57
2023/05/13 10:18:43;;;;;;;21.48;11.02;;;;;;;;;;5015764;28;20076;-57
2023/05/13 10:21:09;;;;;;;20.05;13.18;;;;;;;;;;5013454;28;20065;-57
2023/05/13 10:23:36;;;;;;;19.65;12.77;;;;;;;;;;5011421;28;20054;-57
2023/05/13 10:26:02;;;;;;;19.10;11.07;;;;;;;;;;5012688;28;20042;-57
2023/05/13 10:28:29;;;;;;;21.48;11.95;;;;;;;;;;5012439;28;20048;-57
2023/05/13 10:30:55;;;;;;;27.35;15.70;;;;;;;;;;5011509;28;20109;-57
2023/05/13 10:33:22;;;;;;;19.27;10.05;;;;;;;;;;5034249;28;20034;-57
2023/05/13 10:36:02;;;;;;;19.75;12.18;;;;;;;;;;5013869;28;20044;-57
2023/05/13 10:38:41;;;;;;;20.00;12.55;;;;;;;;;;5008908;28;20141;-57
2023/05/13 10:41:09;;;;;;;19.92;13.80;;;;;;;;;;5010792;28;20042;-57
2023/05/13 10:43:36;;;;;;;18.42;14.52;;;;;;;;;;5000507;28;20127;-57
2023/05/13 10:46:06;;;;;;;21.80;13.48;;;;;;;;;;5006305;28;20057;-57
2023/05/13 10:48:54;;;;;;;18.25;11.40;;;;;;;;;;5009914;28;20054;-57
2023/05/13 10:51:22;;;;;;;18.67;11.55;;;;;;;;;;5014441;28;20169;-57
2023/05/13 10:53:48;;;;;;;18.40;12.43;;;;;;;;;;5008910;28;20572;-57
2023/05/13 10:56:15;;;;;;;24.85;13.35;;;;;;;;;;5010159;28;20132;-57
2023/05/13 10:58:41;;;;;;;20.58;14.90;;;;;;;;;;5013067;28;20046;-57
2023/05/13 11:01:18;;;;;;;19.55;12.80;;;;;;;;;;5008027;28;20050;-57
2023/05/13 11:03:54;;;;;;;17.92;12.35;;;;;;;;;;5010253;28;20041;-58
2023/05/13 11:06:25;;;;;;;21.02;13.65;;;;;;;;;;5009715;28;20041;-58
2023/05/13 11:08:52;;;;;;;76.13;29.60;;;;;;;;;;5008251;28;20053;-57
2023/05/13 11:11:21;;;;;;;19.77;14.52;;;;;;;;;;5011867;28;20110;-57
2023/05/13 11:14:14;;;;;;;27.92;12.68;;;;;;;;;;5009732;28;20046;-57
2023/05/13 11:16:44;;;;;;;37.08;15.68;;;;;;;;;;5008060;28;20172;-57
2023/05/13 11:19:18;;;;;;;23.05;15.18;;;;;;;;;;5001063;28;20150;-57
2023/05/13 11:21:47;;;;;;;21.50;14.25;;;;;;;;;;5008870;28;20517;-57
2023/05/13 11:24:17;;;;;;;21.67;14.13;;;;;;;;;;5003684;28;20085;-58
2023/05/13 11:26:46;;;;;;;14.07;10.40;;;;;;;;;;5010901;28;20169;-57
2023/05/13 11:29:12;;;;;;;23.52;12.80;;;;;;;;;;5007324;28;20058;-58
2023/05/13 11:31:43;;;;;;;21.73;12.88;;;;;;;;;;5002402;28;20038;-58
2023/05/13 11:34:19;;;;;;;17.13;10.98;;;;;;;;;;5010180;28;20166;-57
2023/05/13 11:36:46;;;;;;;17.42;11.60;;;;;;;;;;5002047;28;20043;-57
2023/05/13 11:39:14;;;;;;;14.55;9.88;;;;;;;;;;5008788;28;20050;-57
2023/05/13 11:41:50;;;;;;;17.02;11.13;;;;;;;;;;5011402;28;20041;-57
2023/05/13 11:44:17;;;;;;;19.60;12.27;;;;;;;;;;5003874;28;20163;-58
2023/05/13 11:47:00;;;;;;;21.33;12.80;;;;;;;;;;5010978;28;20604;-58
2023/05/13 11:49:37;;;;;;;18.95;11.90;;;;;;;;;;5007767;28;20528;-60
2023/05/13 11:52:04;;;;;;;19.40;13.75;;;;;;;;;;5003519;28;20152;-60
2023/05/13 11:54:30;;;;;;;23.38;14.55;;;;;;;;;;5027983;28;20042;-60
2023/05/13 11:56:56;;;;;;;18.08;14.00;;;;;;;;;;5013888;28;20049;-60
2023/05/13 11:59:23;;;;;;;22.30;13.20;;;;;;;;;;5011676;28;20045;-59
2023/05/13 12:01:59;;;;;;;18.77;11.18;;;;;;;;;;5009825;28;20488;-59
2023/05/13 12:04:30;;;;;;;15.65;8.07;;;;;;;;;;5014330;28;20483;-59
2023/05/13 12:06:56;;;;;;;15.50;10.88;;;;;;;;;;5006752;28;20030;-60
2023/05/13 12:09:23;;;;;;;19.02;13.02;;;;;;;;;;5011148;28;20052;-60
2023/05/13 12:11:50;;;;;;;20.02;11.98;;;;;;;;;;5012116;28;20309;-60
2023/05/13 12:14:17;;;;;;;19.25;10.95;;;;;;;;;;5008754;28;20084;-60
2023/05/13 12:16:43;;;;;;;21.00;12.15;;;;;;;;;;5002238;28;20050;-60
2023/05/13 12:19:10;;;;;;;18.23;10.30;;;;;;;;;;5008416;28;20049;-60
2023/05/13 12:21:37;;;;;;;16.80;9.70;;;;;;;;;;5012214;28;20042;-60
2023/05/13 12:24:16;;;;;;;18.60;12.43;;;;;;;;;;5014348;28;21257;-60
2023/05/13 12:26:42;;;;;;;22.70;12.65;;;;;;;;;;5014224;28;20041;-59
2023/05/13 12:29:09;;;;;;;16.63;10.18;;;;;;;;;;5008859;28;20165;-60
2023/05/13 12:31:35;;;;;;;22.23;13.18;;;;;;;;;;5008019;28;20053;-59
2023/05/13 12:34:01;;;;;;;19.15;13.75;;;;;;;;;;5005179;28;20955;-59
2023/05/13 12:36:34;;;;;;;22.67;11.25;;;;;;;;;;5003226;28;20046;-59
2023/05/13 12:39:02;;;;;;;15.38;9.40;;;;;;;;;;5010826;28;20053;-59
2023/05/13 12:41:29;;;;;;;17.70;11.85;;;;;;;;;;5005767;28;20039;-59
2023/05/13 12:43:59;;;;;;;19.55;14.60;;;;;;;;;;5010661;28;20038;-60
2023/05/13 12:46:26;;;;;;;20.25;14.25;;;;;;;;;;5009753;28;20088;-59
2023/05/13 12:48:57;;;;;;;23.25;14.52;;;;;;;;;;5013272;28;20057;-60
2023/05/13 12:51:24;;;;;;;18.92;11.60;;;;;;;;;;5003736;28;20599;-59
2023/05/13 12:53:52;;;;;;;14.15;8.52;;;;;;;;;;5004260;28;20541;-59
2023/05/13 12:56:18;;;;;;;22.05;13.43;;;;;;;;;;5010533;28;20089;-60
2023/05/13 12:58:45;;;;;;;23.02;14.20;;;;;;;;;;5009979;28;20104;-59
2023/05/13 13:01:11;;;;;;;20.25;12.48;;;;;;;;;;5006680;28;20042;-60
2023/05/13 13:03:37;;;;;;;20.33;14.40;;;;;;;;;;5008003;28;20037;-61
2023/05/13 13:06:03;;;;;;;26.80;16.10;;;;;;;;;;5010648;28;20042;-60
2023/05/13 13:08:29;;;;;;;25.92;14.90;;;;;;;;;;5005793;28;20540;-60
2023/05/13 13:10:55;;;;;;;22.00;13.48;;;;;;;;;;5007856;28;20049;-60
2023/05/13 13:13:21;;;;;;;19.63;13.68;;;;;;;;;;5009670;28;20521;-60
2023/05/13 13:15:47;;;;;;;23.17;14.23;;;;;;;;;;5007087;28;20526;-60
2023/05/13 13:18:13;;;;;;;13.57;8.07;;;;;;;;;;5010271;28;20069;-60
2023/05/13 13:20:40;;;;;;;22.02;14.98;;;;;;;;;;5014626;28;20524;-60
2023/05/13 13:23:06;;;;;;;24.30;15.23;;;;;;;;;;5005456;28;20042;-60
2023/05/13 13:25:32;;;;;;;24.02;15.30;;;;;;;;;;5008781;28;20045;-60
2023/05/13 13:27:58;;;;;;;16.77;10.82;;;;;;;;;;5010171;28;20431;-60
2023/05/13 13:30:24;;;;;;;21.77;14.45;;;;;;;;;;5002462;28;20042;-59
2023/05/13 13:32:50;;;;;;;21.23;15.18;;;;;;;;;;5010731;28;20046;-60
2023/05/13 13:35:16;;;;;;;12.85;8.90;;;;;;;;;;5003636;28;20042;-60
2023/05/13 13:37:42;;;;;;;14.95;11.85;;;;;;;;;;5009634;28;20072;-60
2023/05/13 13:40:08;;;;;;;20.10;13.15;;;;;;;;;;5009943;28;20511;-60
2023/05/13 13:42:34;;;;;;;20.88;13.63;;;;;;;;;;5014022;28;20042;-60
2023/05/13 13:45:02;;;;;;;19.88;12.32;;;;;;;;;;5007747;28;20109;-60
2023/05/13 13:47:28;;;;;;;15.65;11.95;;;;;;;;;;5007512;28;20050;-60
2023/05/13 13:49:54;;;;;;;19.83;12.27;;;;;;;;;;5043976;28;20297;-60
2023/05/13 13:52:21;;;;;;;15.40;11.73;;;;;;;;;;5012079;28;20269;-60
2023/05/13 13:54:47;;;;;;;17.35;10.35;;;;;;;;;;5013619;28;20060;-59
2023/05/13 13:57:14;;;;;;;18.23;11.18;;;;;;;;;;5013985;28;20038;-60
2023/05/13 13:59:40;;;;;;;16.58;11.15;;;;;;;;;;5013765;28;20072;-60
2023/05/13 14:02:06;;;;;;;12.15;8.20;;;;;;;;;;5013991;28;20042;-59
2023/05/13 14:04:32;;;;;;;17.10;11.27;;;;;;;;;;5013690;28;20053;-57
2023/05/13 14:06:59;;;;;;;25.05;9.60;;;;;;;;;;5015019;28;20046;-57
2023/05/13 14:09:25;;;;;;;18.20;11.50;;;;;;;;;;5014387;28;20567;-57
2023/05/13 14:11:51;;;;;;;15.65;9.93;;;;;;;;;;5013340;28;20038;-57
2023/05/13 14:14:17;;;;;;;18.48;13.02;;;;;;;;;;5014753;28;20133;-57
2023/05/13 14:16:44;;;;;;;16.85;10.18;;;;;;;;;;5011159;28;20053;-57
2023/05/13 14:19:12;;;;;;;13.23;8.32;;;;;;;;;;5013362;28;20049;-57
2023/05/13 14:21:38;;;;;;;18.25;10.80;;;;;;;;;;5013058;28;20042;-57